Williamsburg, Indiana
Current Conditions -  °F | °C
As of 11:53 PM on Friday 24 Oct 2014 (Local Time) from KMIE Reporting Station
Clear Clear  
Wind Chill: 53°   Ceiling: Unl
Heat Index: 53°   Visibility: 9mi
Dew Point: 48°   Wind: 5mph
Humidity: 83%   Direction: 210°SSW
Pressure: 30.01"   Gusts: NA
Location:  39.95°N, 85°W
Report Text: KMIE 250353Z AUTO 21004KT 9SM CLR 12/09 A3001 RMK AO2 SLP160 T01170089
Loading
Personal Weather Stations






























Interactive Weather Map
Tropical Storm Tracking
New forecast layout! Learn more

10-Day Weather Forecast

Advertisements
Track Severe Weather on mobile